sensor_id;sensor_type;location;lat;lon;timestamp;P1;durP1;ratioP1;P2;durP2;ratioP2
69856;SDS011;57147;53.582;10.112;2023-08-20T00:02:04;11.23;;;5.15;;
69856;SDS011;57147;53.582;10.112;2023-08-20T00:07:09;14.48;;;5.00;;
69856;SDS011;57147;53.582;10.112;2023-08-20T00:12:13;13.27;;;5.20;;
69856;SDS011;57147;53.582;10.112;2023-08-20T00:17:14;12.27;;;5.45;;
69856;SDS011;57147;53.582;10.112;2023-08-20T00:22:15;11.55;;;3.63;;
69856;SDS011;57147;53.582;10.112;2023-08-20T00:27:19;11.23;;;5.50;;
69856;SDS011;57147;53.582;10.112;2023-08-20T00:32:19;14.35;;;6.38;;
69856;SDS011;57147;53.582;10.112;2023-08-20T00:37:20;13.18;;;5.20;;
69856;SDS011;57147;53.582;10.112;2023-08-20T00:42:23;13.20;;;6.28;;
69856;SDS011;57147;53.582;10.112;2023-08-20T00:47:24;10.23;;;5.10;;
69856;SDS011;57147;53.582;10.112;2023-08-20T00:52:24;11.75;;;6.07;;
69856;SDS011;57147;53.582;10.112;2023-08-20T00:57:28;11.85;;;5.75;;
69856;SDS011;57147;53.582;10.112;2023-08-20T01:02:29;11.90;;;5.88;;
69856;SDS011;57147;53.582;10.112;2023-08-20T01:07:30;11.68;;;5.90;;
69856;SDS011;57147;53.582;10.112;2023-08-20T01:12:42;12.10;;;5.82;;
69856;SDS011;57147;53.582;10.112;2023-08-20T01:17:44;12.75;;;5.47;;
69856;SDS011;57147;53.582;10.112;2023-08-20T01:22:51;14.07;;;5.85;;
69856;SDS011;57147;53.582;10.112;2023-08-20T01:33:20;9.90;;;5.47;;
69856;SDS011;57147;53.582;10.112;2023-08-20T01:38:23;9.43;;;5.60;;
69856;SDS011;57147;53.582;10.112;2023-08-20T01:43:26;10.95;;;5.60;;
69856;SDS011;57147;53.582;10.112;2023-08-20T01:48:27;9.20;;;5.88;;
69856;SDS011;57147;53.582;10.112;2023-08-20T01:53:28;7.45;;;3.47;;
69856;SDS011;57147;53.582;10.112;2023-08-20T01:58:31;8.23;;;5.10;;
69856;SDS011;57147;53.582;10.112;2023-08-20T02:03:32;10.68;;;5.97;;
69856;SDS011;57147;53.582;10.112;2023-08-20T02:08:32;9.35;;;5.45;;
69856;SDS011;57147;53.582;10.112;2023-08-20T02:13:36;9.95;;;6.60;;
69856;SDS011;57147;53.582;10.112;2023-08-20T02:18:36;10.10;;;5.65;;
69856;SDS011;57147;53.582;10.112;2023-08-20T02:23:37;10.70;;;6.43;;
69856;SDS011;57147;53.582;10.112;2023-08-20T02:28:41;12.90;;;6.40;;
69856;SDS011;57147;53.582;10.112;2023-08-20T02:33:41;11.23;;;6.47;;
69856;SDS011;57147;53.582;10.112;2023-08-20T02:38:42;9.73;;;5.85;;
69856;SDS011;57147;53.582;10.112;2023-08-20T02:43:45;10.15;;;5.93;;
69856;SDS011;57147;53.582;10.112;2023-08-20T02:48:46;9.30;;;5.13;;
69856;SDS011;57147;53.582;10.112;2023-08-20T02:53:46;8.68;;;6.40;;
69856;SDS011;57147;53.582;10.112;2023-08-20T02:58:49;11.27;;;6.25;;
69856;SDS011;57147;53.582;10.112;2023-08-20T03:03:50;8.75;;;6.07;;
69856;SDS011;57147;53.582;10.112;2023-08-20T03:08:51;10.20;;;6.20;;
69856;SDS011;57147;53.582;10.112;2023-08-20T03:13:54;11.15;;;6.45;;
69856;SDS011;57147;53.582;10.112;2023-08-20T03:18:54;9.52;;;6.13;;
69856;SDS011;57147;53.582;10.112;2023-08-20T03:23:55;10.18;;;6.38;;
69856;SDS011;57147;53.582;10.112;2023-08-20T03:28:58;10.40;;;7.18;;
69856;SDS011;57147;53.582;10.112;2023-08-20T03:33:59;10.82;;;5.78;;
69856;SDS011;57147;53.582;10.112;2023-08-20T03:38:59;8.80;;;4.88;;
69856;SDS011;57147;53.582;10.112;2023-08-20T03:44:03;10.13;;;6.82;;
69856;SDS011;57147;53.582;10.112;2023-08-20T03:49:03;10.18;;;6.05;;
69856;SDS011;57147;53.582;10.112;2023-08-20T03:54:04;10.57;;;6.43;;
69856;SDS011;57147;53.582;10.112;2023-08-20T03:59:07;10.73;;;7.43;;
69856;SDS011;57147;53.582;10.112;2023-08-20T04:04:09;10.55;;;6.30;;
69856;SDS011;57147;53.582;10.112;2023-08-20T04:09:09;10.38;;;7.22;;
69856;SDS011;57147;53.582;10.112;2023-08-20T04:14:12;12.25;;;7.43;;
69856;SDS011;57147;53.582;10.112;2023-08-20T04:19:13;10.38;;;8.48;;
69856;SDS011;57147;53.582;10.112;2023-08-20T04:24:13;10.98;;;8.52;;
69856;SDS011;57147;53.582;10.112;2023-08-20T04:29:17;11.05;;;7.03;;
69856;SDS011;57147;53.582;10.112;2023-08-20T04:34:17;8.75;;;6.43;;
69856;SDS011;57147;53.582;10.112;2023-08-20T04:39:18;11.43;;;7.47;;
69856;SDS011;57147;53.582;10.112;2023-08-20T04:44:21;10.32;;;7.53;;
69856;SDS011;57147;53.582;10.112;2023-08-20T04:49:22;9.68;;;8.20;;
69856;SDS011;57147;53.582;10.112;2023-08-20T04:54:22;11.27;;;7.93;;
69856;SDS011;57147;53.582;10.112;2023-08-20T04:59:26;11.57;;;7.47;;
69856;SDS011;57147;53.582;10.112;2023-08-20T05:04:26;12.20;;;9.30;;
69856;SDS011;57147;53.582;10.112;2023-08-20T05:09:27;10.23;;;7.82;;
69856;SDS011;57147;53.582;10.112;2023-08-20T05:14:30;12.38;;;8.15;;
69856;SDS011;57147;53.582;10.112;2023-08-20T05:19:31;15.23;;;9.70;;
69856;SDS011;57147;53.582;10.112;2023-08-20T05:24:31;19.92;;;9.63;;
69856;SDS011;57147;53.582;10.112;2023-08-20T05:29:34;25.90;;;10.25;;
69856;SDS011;57147;53.582;10.112;2023-08-20T05:34:36;30.10;;;13.77;;
69856;SDS011;57147;53.582;10.112;2023-08-20T05:39:37;29.02;;;15.65;;
69856;SDS011;57147;53.582;10.112;2023-08-20T05:44:44;27.48;;;15.52;;
69856;SDS011;57147;53.582;10.112;2023-08-20T05:49:45;21.17;;;13.85;;
69856;SDS011;57147;53.582;10.112;2023-08-20T05:54:45;25.13;;;14.68;;
69856;SDS011;57147;53.582;10.112;2023-08-20T05:59:48;19.92;;;14.02;;
69856;SDS011;57147;53.582;10.112;2023-08-20T06:04:49;20.45;;;13.57;;
69856;SDS011;57147;53.582;10.112;2023-08-20T06:09:50;26.42;;;13.27;;
69856;SDS011;57147;53.582;10.112;2023-08-20T06:14:53;18.65;;;11.90;;
69856;SDS011;57147;53.582;10.112;2023-08-20T06:19:54;20.73;;;11.07;;
69856;SDS011;57147;53.582;10.112;2023-08-20T06:24:54;14.80;;;10.07;;
69856;SDS011;57147;53.582;10.112;2023-08-20T06:29:57;14.57;;;9.30;;
69856;SDS011;57147;53.582;10.112;2023-08-20T06:34:58;10.38;;;7.03;;
69856;SDS011;57147;53.582;10.112;2023-08-20T06:39:59;10.00;;;7.43;;
69856;SDS011;57147;53.582;10.112;2023-08-20T06:45:02;11.23;;;7.97;;
69856;SDS011;57147;53.582;10.112;2023-08-20T06:50:04;13.30;;;9.73;;
69856;SDS011;57147;53.582;10.112;2023-08-20T06:55:05;18.58;;;10.60;;
69856;SDS011;57147;53.582;10.112;2023-08-20T07:00:09;15.95;;;11.25;;
69856;SDS011;57147;53.582;10.112;2023-08-20T07:05:10;14.77;;;10.75;;
69856;SDS011;57147;53.582;10.112;2023-08-20T07:10:11;15.15;;;10.75;;
69856;SDS011;57147;53.582;10.112;2023-08-20T07:15:14;11.70;;;9.98;;
69856;SDS011;57147;53.582;10.112;2023-08-20T07:20:15;9.88;;;8.57;;
69856;SDS011;57147;53.582;10.112;2023-08-20T07:25:16;13.32;;;10.18;;
69856;SDS011;57147;53.582;10.112;2023-08-20T07:30:19;17.70;;;12.50;;
69856;SDS011;57147;53.582;10.112;2023-08-20T07:35:19;22.88;;;15.43;;
69856;SDS011;57147;53.582;10.112;2023-08-20T07:40:20;23.73;;;16.50;;
69856;SDS011;57147;53.582;10.112;2023-08-20T07:45:24;25.00;;;17.80;;
69856;SDS011;57147;53.582;10.112;2023-08-20T07:55:25;29.10;;;20.30;;
69856;SDS011;57147;53.582;10.112;2023-08-20T08:00:29;26.38;;;19.35;;
69856;SDS011;57147;53.582;10.112;2023-08-20T08:05:29;24.30;;;17.50;;
69856;SDS011;57147;53.582;10.112;2023-08-20T08:10:30;26.67;;;18.02;;
69856;SDS011;57147;53.582;10.112;2023-08-20T08:15:33;22.55;;;16.80;;
69856;SDS011;57147;53.582;10.112;2023-08-20T08:20:34;20.55;;;14.48;;
69856;SDS011;57147;53.582;10.112;2023-08-20T08:25:35;20.52;;;13.93;;
69856;SDS011;57147;53.582;10.112;2023-08-20T08:30:39;19.00;;;13.20;;
69856;SDS011;57147;53.582;10.112;2023-08-20T08:35:40;18.10;;;12.60;;
69856;SDS011;57147;53.582;10.112;2023-08-20T08:40:41;10.18;;;5.10;;
69856;SDS011;57147;53.582;10.112;2023-08-20T08:45:46;9.63;;;3.80;;
69856;SDS011;57147;53.582;10.112;2023-08-20T08:50:47;7.63;;;4.22;;
69856;SDS011;57147;53.582;10.112;2023-08-20T08:55:49;7.43;;;4.22;;
69856;SDS011;57147;53.582;10.112;2023-08-20T09:00:52;5.53;;;2.15;;
69856;SDS011;57147;53.582;10.112;2023-08-20T09:05:54;7.93;;;2.92;;
69856;SDS011;57147;53.582;10.112;2023-08-20T09:10:55;6.32;;;2.30;;
69856;SDS011;57147;53.582;10.112;2023-08-20T09:15:59;5.40;;;3.25;;
69856;SDS011;57147;53.582;10.112;2023-08-20T09:21:05;6.90;;;3.47;;
69856;SDS011;57147;53.582;10.112;2023-08-20T09:26:07;5.53;;;2.65;;
69856;SDS011;57147;53.582;10.112;2023-08-20T09:31:10;12.43;;;3.17;;
69856;SDS011;57147;53.582;10.112;2023-08-20T09:36:11;5.38;;;2.75;;
69856;SDS011;57147;53.582;10.112;2023-08-20T09:41:12;7.10;;;4.30;;
69856;SDS011;57147;53.582;10.112;2023-08-20T09:46:15;6.43;;;2.35;;
69856;SDS011;57147;53.582;10.112;2023-08-20T09:51:21;6.95;;;2.90;;
69856;SDS011;57147;53.582;10.112;2023-08-20T09:56:26;5.68;;;2.72;;
69856;SDS011;57147;53.582;10.112;2023-08-20T10:01:31;6.88;;;2.88;;
69856;SDS011;57147;53.582;10.112;2023-08-20T10:06:36;7.90;;;3.92;;
69856;SDS011;57147;53.582;10.112;2023-08-20T10:11:37;4.70;;;2.50;;
69856;SDS011;57147;53.582;10.112;2023-08-20T10:16:40;6.28;;;4.10;;
69856;SDS011;57147;53.582;10.112;2023-08-20T10:21:43;9.15;;;3.67;;
69856;SDS011;57147;53.582;10.112;2023-08-20T10:26:45;6.32;;;2.58;;
69856;SDS011;57147;53.582;10.112;2023-08-20T10:31:48;6.85;;;4.13;;
69856;SDS011;57147;53.582;10.112;2023-08-20T10:36:51;6.72;;;3.97;;
69856;SDS011;57147;53.582;10.112;2023-08-20T10:41:58;5.70;;;3.58;;
69856;SDS011;57147;53.582;10.112;2023-08-20T10:47:11;7.75;;;2.72;;
69856;SDS011;57147;53.582;10.112;2023-08-20T10:52:17;4.78;;;2.40;;
69856;SDS011;57147;53.582;10.112;2023-08-20T10:57:18;5.10;;;2.72;;
69856;SDS011;57147;53.582;10.112;2023-08-20T11:02:21;5.40;;;2.88;;
69856;SDS011;57147;53.582;10.112;2023-08-20T11:07:23;8.18;;;2.88;;
69856;SDS011;57147;53.582;10.112;2023-08-20T11:12:24;6.32;;;2.35;;
69856;SDS011;57147;53.582;10.112;2023-08-20T11:17:27;8.23;;;2.53;;
69856;SDS011;57147;53.582;10.112;2023-08-20T11:22:28;4.97;;;2.65;;
69856;SDS011;57147;53.582;10.112;2023-08-20T11:27:30;7.05;;;2.92;;
69856;SDS011;57147;53.582;10.112;2023-08-20T11:32:33;3.67;;;2.22;;
69856;SDS011;57147;53.582;10.112;2023-08-20T11:37:34;6.05;;;2.60;;
69856;SDS011;57147;53.582;10.112;2023-08-20T11:42:35;4.47;;;2.25;;
69856;SDS011;57147;53.582;10.112;2023-08-20T11:47:40;3.78;;;2.70;;
69856;SDS011;57147;53.582;10.112;2023-08-20T11:52:42;6.88;;;2.80;;
69856;SDS011;57147;53.582;10.112;2023-08-20T11:57:42;3.38;;;1.85;;
69856;SDS011;57147;53.582;10.112;2023-08-20T12:02:54;5.90;;;2.30;;
69856;SDS011;57147;53.582;10.112;2023-08-20T12:07:55;5.70;;;3.42;;
69856;SDS011;57147;53.582;10.112;2023-08-20T12:12:57;4.93;;;2.03;;
69856;SDS011;57147;53.582;10.112;2023-08-20T12:18:02;5.93;;;2.53;;
69856;SDS011;57147;53.582;10.112;2023-08-20T12:23:04;3.58;;;2.45;;
69856;SDS011;57147;53.582;10.112;2023-08-20T12:28:06;6.93;;;2.65;;
69856;SDS011;57147;53.582;10.112;2023-08-20T12:33:09;5.30;;;2.22;;
69856;SDS011;57147;53.582;10.112;2023-08-20T12:38:10;4.80;;;2.92;;
69856;SDS011;57147;53.582;10.112;2023-08-20T12:43:10;5.03;;;2.17;;
69856;SDS011;57147;53.582;10.112;2023-08-20T12:48:14;4.43;;;1.85;;
69856;SDS011;57147;53.582;10.112;2023-08-20T12:53:14;4.38;;;2.05;;
69856;SDS011;57147;53.582;10.112;2023-08-20T12:58:15;4.25;;;1.92;;
69856;SDS011;57147;53.582;10.112;2023-08-20T13:03:18;5.20;;;2.33;;
69856;SDS011;57147;53.582;10.112;2023-08-20T13:08:20;4.68;;;1.58;;
69856;SDS011;57147;53.582;10.112;2023-08-20T13:13:21;2.40;;;0.82;;
69856;SDS011;57147;53.582;10.112;2023-08-20T13:18:25;3.60;;;0.90;;
69856;SDS011;57147;53.582;10.112;2023-08-20T13:23:26;6.07;;;3.05;;
69856;SDS011;57147;53.582;10.112;2023-08-20T13:28:27;6.57;;;3.85;;
69856;SDS011;57147;53.582;10.112;2023-08-20T13:33:30;4.50;;;2.20;;
69856;SDS011;57147;53.582;10.112;2023-08-20T13:43:31;4.20;;;2.17;;
69856;SDS011;57147;53.582;10.112;2023-08-20T13:48:34;3.65;;;2.13;;
69856;SDS011;57147;53.582;10.112;2023-08-20T13:53:36;5.10;;;2.88;;
69856;SDS011;57147;53.582;10.112;2023-08-20T13:58:37;6.13;;;2.65;;
69856;SDS011;57147;53.582;10.112;2023-08-20T14:03:42;5.28;;;2.50;;
69856;SDS011;57147;53.582;10.112;2023-08-20T14:13:42;5.63;;;2.83;;
69856;SDS011;57147;53.582;10.112;2023-08-20T14:18:46;4.88;;;2.65;;
69856;SDS011;57147;53.582;10.112;2023-08-20T14:23:46;6.70;;;2.50;;
69856;SDS011;57147;53.582;10.112;2023-08-20T14:28:47;3.83;;;1.58;;
69856;SDS011;57147;53.582;10.112;2023-08-20T14:33:50;4.63;;;1.42;;
69856;SDS011;57147;53.582;10.112;2023-08-20T14:38:51;3.72;;;2.55;;
69856;SDS011;57147;53.582;10.112;2023-08-20T14:43:54;5.43;;;2.13;;
69856;SDS011;57147;53.582;10.112;2023-08-20T14:48:58;4.40;;;1.95;;
69856;SDS011;57147;53.582;10.112;2023-08-20T14:53:58;3.05;;;1.77;;
69856;SDS011;57147;53.582;10.112;2023-08-20T14:58:59;3.60;;;1.77;;
69856;SDS011;57147;53.582;10.112;2023-08-20T15:04:02;4.18;;;1.98;;
69856;SDS011;57147;53.582;10.112;2023-08-20T15:09:03;4.07;;;1.65;;
69856;SDS011;57147;53.582;10.112;2023-08-20T15:14:03;4.15;;;1.30;;
69856;SDS011;57147;53.582;10.112;2023-08-20T15:19:06;5.05;;;2.25;;
69856;SDS011;57147;53.582;10.112;2023-08-20T15:24:07;4.95;;;2.00;;
69856;SDS011;57147;53.582;10.112;2023-08-20T15:29:08;5.47;;;1.58;;
69856;SDS011;57147;53.582;10.112;2023-08-20T15:34:11;5.13;;;2.58;;
69856;SDS011;57147;53.582;10.112;2023-08-20T15:39:11;3.35;;;1.52;;
69856;SDS011;57147;53.582;10.112;2023-08-20T15:44:12;4.75;;;0.90;;
69856;SDS011;57147;53.582;10.112;2023-08-20T15:49:15;2.70;;;0.98;;
69856;SDS011;57147;53.582;10.112;2023-08-20T15:54:16;3.38;;;1.73;;
69856;SDS011;57147;53.582;10.112;2023-08-20T15:59:17;3.83;;;1.80;;
69856;SDS011;57147;53.582;10.112;2023-08-20T16:04:20;2.75;;;1.40;;
69856;SDS011;57147;53.582;10.112;2023-08-20T16:09:21;3.80;;;1.30;;
69856;SDS011;57147;53.582;10.112;2023-08-20T16:14:21;3.33;;;1.38;;
69856;SDS011;57147;53.582;10.112;2023-08-20T16:19:26;3.88;;;0.63;;
69856;SDS011;57147;53.582;10.112;2023-08-20T16:24:27;2.30;;;1.20;;
69856;SDS011;57147;53.582;10.112;2023-08-20T16:29:27;3.40;;;0.40;;
69856;SDS011;57147;53.582;10.112;2023-08-20T16:34:30;2.70;;;1.40;;
69856;SDS011;57147;53.582;10.112;2023-08-20T16:39:31;3.67;;;1.52;;
69856;SDS011;57147;53.582;10.112;2023-08-20T16:44:32;3.42;;;1.50;;
69856;SDS011;57147;53.582;10.112;2023-08-20T16:49:35;3.30;;;1.13;;
69856;SDS011;57147;53.582;10.112;2023-08-20T16:54:35;3.42;;;0.57;;
69856;SDS011;57147;53.582;10.112;2023-08-20T16:59:36;2.80;;;0.90;;
69856;SDS011;57147;53.582;10.112;2023-08-20T17:04:39;2.80;;;1.38;;
69856;SDS011;57147;53.582;10.112;2023-08-20T17:09:40;2.50;;;0.55;;
69856;SDS011;57147;53.582;10.112;2023-08-20T17:14:41;3.05;;;1.35;;
69856;SDS011;57147;53.582;10.112;2023-08-20T17:19:44;3.30;;;1.08;;
69856;SDS011;57147;53.582;10.112;2023-08-20T17:24:48;3.53;;;1.67;;
69856;SDS011;57147;53.582;10.112;2023-08-20T17:29:48;3.10;;;1.10;;
69856;SDS011;57147;53.582;10.112;2023-08-20T17:34:52;3.22;;;1.10;;
69856;SDS011;57147;53.582;10.112;2023-08-20T17:39:52;4.60;;;1.33;;
69856;SDS011;57147;53.582;10.112;2023-08-20T17:44:53;4.05;;;1.27;;
69856;SDS011;57147;53.582;10.112;2023-08-20T17:49:56;3.33;;;1.92;;
69856;SDS011;57147;53.582;10.112;2023-08-20T17:54:59;3.25;;;1.48;;
69856;SDS011;57147;53.582;10.112;2023-08-20T18:00:00;4.63;;;2.13;;
69856;SDS011;57147;53.582;10.112;2023-08-20T18:05:03;3.75;;;1.67;;
69856;SDS011;57147;53.582;10.112;2023-08-20T18:10:05;4.35;;;0.63;;
69856;SDS011;57147;53.582;10.112;2023-08-20T18:15:07;3.15;;;2.30;;
69856;SDS011;57147;53.582;10.112;2023-08-20T18:20:11;4.82;;;2.20;;
69856;SDS011;57147;53.582;10.112;2023-08-20T18:25:11;4.95;;;1.90;;
69856;SDS011;57147;53.582;10.112;2023-08-20T18:30:12;3.92;;;1.35;;
69856;SDS011;57147;53.582;10.112;2023-08-20T18:35:15;4.18;;;1.83;;
69856;SDS011;57147;53.582;10.112;2023-08-20T18:40:16;6.00;;;2.30;;
69856;SDS011;57147;53.582;10.112;2023-08-20T18:45:19;6.53;;;2.85;;
69856;SDS011;57147;53.582;10.112;2023-08-20T18:50:22;5.82;;;3.30;;
69856;SDS011;57147;53.582;10.112;2023-08-20T18:55:23;8.25;;;3.60;;
69856;SDS011;57147;53.582;10.112;2023-08-20T19:00:23;8.98;;;3.28;;
69856;SDS011;57147;53.582;10.112;2023-08-20T19:05:28;5.47;;;2.83;;
69856;SDS011;57147;53.582;10.112;2023-08-20T19:10:29;5.18;;;2.05;;
69856;SDS011;57147;53.582;10.112;2023-08-20T19:15:30;5.25;;;3.03;;
69856;SDS011;57147;53.582;10.112;2023-08-20T19:20:33;5.63;;;4.18;;
69856;SDS011;57147;53.582;10.112;2023-08-20T19:25:34;18.10;;;14.45;;
69856;SDS011;57147;53.582;10.112;2023-08-20T19:30:34;7.18;;;3.17;;
69856;SDS011;57147;53.582;10.112;2023-08-20T19:35:38;13.32;;;9.38;;
69856;SDS011;57147;53.582;10.112;2023-08-20T19:40:38;8.98;;;5.30;;
69856;SDS011;57147;53.582;10.112;2023-08-20T19:45:40;8.52;;;4.35;;
69856;SDS011;57147;53.582;10.112;2023-08-20T19:50:46;6.93;;;3.92;;
69856;SDS011;57147;53.582;10.112;2023-08-20T19:55:46;7.03;;;3.83;;
69856;SDS011;57147;53.582;10.112;2023-08-20T20:00:47;7.35;;;5.00;;
69856;SDS011;57147;53.582;10.112;2023-08-20T20:05:50;5.43;;;3.97;;
69856;SDS011;57147;53.582;10.112;2023-08-20T20:10:51;5.90;;;3.60;;
69856;SDS011;57147;53.582;10.112;2023-08-20T20:15:52;8.18;;;4.88;;
69856;SDS011;57147;53.582;10.112;2023-08-20T20:20:55;12.38;;;9.05;;
69856;SDS011;57147;53.582;10.112;2023-08-20T20:25:56;7.60;;;4.53;;
69856;SDS011;57147;53.582;10.112;2023-08-20T20:30:56;7.10;;;3.67;;
69856;SDS011;57147;53.582;10.112;2023-08-20T20:36:00;7.03;;;4.10;;
69856;SDS011;57147;53.582;10.112;2023-08-20T20:41:00;5.60;;;3.63;;
69856;SDS011;57147;53.582;10.112;2023-08-20T20:46:01;5.18;;;4.03;;
69856;SDS011;57147;53.582;10.112;2023-08-20T20:51:07;6.72;;;4.25;;
69856;SDS011;57147;53.582;10.112;2023-08-20T20:56:10;8.52;;;5.60;;
69856;SDS011;57147;53.582;10.112;2023-08-20T21:01:10;6.13;;;2.75;;
69856;SDS011;57147;53.582;10.112;2023-08-20T21:06:19;5.53;;;2.58;;
69856;SDS011;57147;53.582;10.112;2023-08-20T21:11:23;6.55;;;3.92;;
69856;SDS011;57147;53.582;10.112;2023-08-20T21:16:23;6.35;;;3.45;;
69856;SDS011;57147;53.582;10.112;2023-08-20T21:21:26;6.63;;;4.70;;
69856;SDS011;57147;53.582;10.112;2023-08-20T21:26:30;18.38;;;13.27;;
69856;SDS011;57147;53.582;10.112;2023-08-20T21:31:30;18.63;;;13.32;;
69856;SDS011;57147;53.582;10.112;2023-08-20T21:36:34;12.18;;;6.30;;
69856;SDS011;57147;53.582;10.112;2023-08-20T21:41:34;7.03;;;2.83;;
69856;SDS011;57147;53.582;10.112;2023-08-20T21:46:35;6.78;;;3.28;;
69856;SDS011;57147;53.582;10.112;2023-08-20T21:51:38;6.65;;;4.45;;
69856;SDS011;57147;53.582;10.112;2023-08-20T21:56:39;7.93;;;5.35;;
69856;SDS011;57147;53.582;10.112;2023-08-20T22:01:39;6.55;;;3.83;;
69856;SDS011;57147;53.582;10.112;2023-08-20T22:06:43;9.27;;;5.72;;
69856;SDS011;57147;53.582;10.112;2023-08-20T22:11:43;8.40;;;4.35;;
69856;SDS011;57147;53.582;10.112;2023-08-20T22:16:44;11.30;;;5.75;;
69856;SDS011;57147;53.582;10.112;2023-08-20T22:21:47;6.82;;;5.10;;
69856;SDS011;57147;53.582;10.112;2023-08-20T22:26:48;6.15;;;3.72;;
69856;SDS011;57147;53.582;10.112;2023-08-20T22:31:49;5.80;;;3.78;;
69856;SDS011;57147;53.582;10.112;2023-08-20T22:36:52;5.95;;;3.38;;
69856;SDS011;57147;53.582;10.112;2023-08-20T22:41:53;9.25;;;4.38;;
69856;SDS011;57147;53.582;10.112;2023-08-20T22:46:54;8.35;;;4.03;;
69856;SDS011;57147;53.582;10.112;2023-08-20T22:51:57;6.43;;;3.90;;
69856;SDS011;57147;53.582;10.112;2023-08-20T22:56:58;6.80;;;3.80;;
69856;SDS011;57147;53.582;10.112;2023-08-20T23:01:58;5.90;;;3.45;;
69856;SDS011;57147;53.582;10.112;2023-08-20T23:07:01;5.63;;;3.75;;
69856;SDS011;57147;53.582;10.112;2023-08-20T23:12:03;7.22;;;3.80;;
69856;SDS011;57147;53.582;10.112;2023-08-20T23:17:04;13.25;;;9.05;;
69856;SDS011;57147;53.582;10.112;2023-08-20T23:22:08;12.00;;;8.52;;
69856;SDS011;57147;53.582;10.112;2023-08-20T23:27:08;11.07;;;8.57;;
69856;SDS011;57147;53.582;10.112;2023-08-20T23:32:09;7.60;;;4.53;;
69856;SDS011;57147;53.582;10.112;2023-08-20T23:37:19;6.13;;;4.32;;
69856;SDS011;57147;53.582;10.112;2023-08-20T23:42:20;6.38;;;5.63;;
69856;SDS011;57147;53.582;10.112;2023-08-20T23:47:20;7.22;;;4.45;;
69856;SDS011;57147;53.582;10.112;2023-08-20T23:52:24;5.38;;;4.13;;
69856;SDS011;57147;53.582;10.112;2023-08-20T23:57:25;7.15;;;4.70;;
